createdAt,value
2018-06-03T00:00:00.589Z,99.90
2018-06-03T00:02:33.740Z,99.90
2018-06-03T00:05:06.869Z,99.90
2018-06-03T00:07:39.793Z,99.90
2018-06-03T00:10:12.875Z,99.90
2018-06-03T00:12:43.679Z,99.90
2018-06-03T00:15:16.929Z,99.90
2018-06-03T00:17:52.037Z,99.90
2018-06-03T00:20:32.352Z,99.90
2018-06-03T00:23:03.645Z,99.90
2018-06-03T00:25:35.345Z,99.90
2018-06-03T00:28:07.736Z,99.90
2018-06-03T00:30:41.024Z,99.90
2018-06-03T00:33:14.725Z,99.90
2018-06-03T00:35:55.609Z,99.90
2018-06-03T00:38:29.222Z,99.90
2018-06-03T00:41:01.989Z,99.90
2018-06-03T00:43:33.590Z,99.90
2018-06-03T00:46:06.932Z,99.90
2018-06-03T00:48:37.516Z,99.90
2018-06-03T00:51:09.975Z,99.90
2018-06-03T00:53:43.333Z,99.90
2018-06-03T00:58:48.003Z,99.90
2018-06-03T01:01:16.080Z,99.90
2018-06-03T01:03:44.391Z,99.90
2018-06-03T01:06:12.565Z,99.90
2018-06-03T01:08:40.854Z,99.90
2018-06-03T01:11:09.001Z,99.90
2018-06-03T01:13:37.451Z,99.90
2018-06-03T01:16:05.635Z,99.90
2018-06-03T01:18:34.309Z,99.90
2018-06-03T01:21:02.616Z,99.90
2018-06-03T01:23:31.351Z,99.90
2018-06-03T01:25:59.572Z,99.90
2018-06-03T01:28:27.681Z,99.90
2018-06-03T01:30:55.987Z,99.90
2018-06-03T01:33:24.729Z,99.90
2018-06-03T01:35:53.053Z,99.90
2018-06-03T01:38:21.317Z,99.90
2018-06-03T01:40:49.553Z,99.90
2018-06-03T01:43:17.619Z,99.90
2018-06-03T01:45:46.001Z,99.90
2018-06-03T01:48:14.159Z,99.90
2018-06-03T01:50:42.349Z,99.90
2018-06-03T01:53:10.777Z,99.90
2018-06-03T01:55:39.381Z,99.90
2018-06-03T01:58:07.805Z,99.90
2018-06-03T02:00:36.108Z,99.90
2018-06-03T02:03:04.372Z,99.90
2018-06-03T02:05:32.690Z,99.90
2018-06-03T02:10:28.987Z,99.90
2018-06-03T02:12:57.484Z,99.90
2018-06-03T02:15:25.593Z,99.90
2018-06-03T02:20:22.122Z,99.90
2018-06-03T02:22:50.313Z,99.90
2018-06-03T02:25:18.499Z,99.90
2018-06-03T02:27:46.925Z,99.90
2018-06-03T02:30:15.206Z,99.90
2018-06-03T02:32:43.496Z,99.90
2018-06-03T02:35:11.701Z,99.90
2018-06-03T02:37:39.862Z,99.90
2018-06-03T02:42:36.212Z,99.90
2018-06-03T02:45:04.680Z,99.90
2018-06-03T02:50:01.221Z,99.90
2018-06-03T02:52:29.395Z,99.90
2018-06-03T02:54:57.585Z,99.90
2018-06-03T02:59:54.071Z,99.90
2018-06-03T03:02:22.599Z,99.90
2018-06-03T03:04:50.653Z,99.90
2018-06-03T03:07:18.885Z,99.90
2018-06-03T03:09:47.097Z,99.90
2018-06-03T03:12:15.214Z,99.90
2018-06-03T03:14:43.328Z,99.90
2018-06-03T03:17:11.434Z,99.90
2018-06-03T03:19:39.890Z,99.90
2018-06-03T03:22:08.154Z,99.90
2018-06-03T03:24:36.335Z,99.90
2018-06-03T03:27:05.457Z,99.90
2018-06-03T03:29:33.684Z,99.90
2018-06-03T03:32:01.940Z,99.90
2018-06-03T03:34:30.478Z,99.90
2018-06-03T03:36:58.883Z,99.90
2018-06-03T03:39:27.330Z,99.90
2018-06-03T03:41:55.392Z,99.90
2018-06-03T03:44:23.429Z,99.90
2018-06-03T03:46:51.796Z,99.90
2018-06-03T03:49:19.910Z,99.90
2018-06-03T03:51:49.180Z,99.90
2018-06-03T03:54:17.295Z,99.90
2018-06-03T03:56:45.915Z,99.90
2018-06-03T03:59:14.232Z,99.90
2018-06-03T04:01:42.620Z,99.90
2018-06-03T04:04:10.924Z,99.90
2018-06-03T04:06:39.245Z,99.90
2018-06-03T04:09:07.556Z,99.90
2018-06-03T04:11:35.760Z,99.90
2018-06-03T04:14:04.021Z,99.90
2018-06-03T04:16:32.549Z,99.90
2018-06-03T04:19:00.869Z,99.90
2018-06-03T04:21:29.149Z,99.90
2018-06-03T04:23:57.402Z,99.90
2018-06-03T04:26:25.639Z,99.90
2018-06-03T04:28:53.893Z,99.90
2018-06-03T04:31:22.126Z,99.90
2018-06-03T04:33:50.373Z,99.90
2018-06-03T04:36:18.781Z,99.90
2018-06-03T04:38:47.079Z,99.90
2018-06-03T04:41:15.180Z,99.90
2018-06-03T04:46:11.766Z,99.90
2018-06-03T04:48:39.939Z,99.90
2018-06-03T04:51:07.980Z,99.90
2018-06-03T04:53:36.052Z,99.90
2018-06-03T04:56:04.206Z,99.90
2018-06-03T04:58:32.421Z,99.90
2018-06-03T05:01:00.632Z,99.90
2018-06-03T05:03:28.935Z,99.90
2018-06-03T05:05:57.165Z,99.90
2018-06-03T05:08:25.435Z,99.90
2018-06-03T05:10:53.719Z,99.90
2018-06-03T05:13:21.866Z,99.90
2018-06-03T05:15:50.209Z,99.90
2018-06-03T05:20:46.554Z,99.90
2018-06-03T05:23:14.807Z,99.90
2018-06-03T05:25:43.250Z,99.90
2018-06-03T05:28:11.364Z,99.90
2018-06-03T05:30:39.453Z,99.90
2018-06-03T05:33:07.747Z,99.90
2018-06-03T05:35:35.873Z,99.90
2018-06-03T05:38:04.071Z,99.90
2018-06-03T05:40:32.152Z,99.90
2018-06-03T05:43:00.528Z,99.90
2018-06-03T05:45:28.706Z,99.90
2018-06-03T05:47:57.206Z,99.90
2018-06-03T05:50:25.474Z,99.90
2018-06-03T05:52:53.857Z,99.90
2018-06-03T05:55:21.981Z,99.90
2018-06-03T05:57:50.104Z,99.90
2018-06-03T06:00:18.688Z,99.90
2018-06-03T06:02:47.035Z,99.90
2018-06-03T06:05:15.263Z,99.90
2018-06-03T06:07:43.342Z,99.90
2018-06-03T06:10:11.646Z,99.90
2018-06-03T06:12:40.224Z,99.90
2018-06-03T06:15:08.552Z,99.90
2018-06-03T06:17:36.817Z,99.90
2018-06-03T06:20:06.452Z,99.90
2018-06-03T06:25:02.814Z,99.90
2018-06-03T06:27:31.337Z,99.90
2018-06-03T06:32:27.581Z,99.90
2018-06-03T06:34:55.784Z,99.90
2018-06-03T06:37:24.065Z,99.90
2018-06-03T06:39:53.479Z,99.90
2018-06-03T06:42:21.681Z,99.90
2018-06-03T06:44:51.911Z,99.90
2018-06-03T06:47:20.264Z,99.90
2018-06-03T06:49:48.896Z,99.90
2018-06-03T06:52:17.117Z,99.90
2018-06-03T06:54:45.341Z,99.90
2018-06-03T06:57:13.539Z,99.90
2018-06-03T06:59:41.901Z,99.90
2018-06-03T07:02:10.498Z,99.90
2018-06-03T07:04:39.058Z,99.90
2018-06-03T07:07:07.802Z,99.90
2018-06-03T07:09:35.923Z,99.90
2018-06-03T07:12:04.190Z,99.90
2018-06-03T07:14:32.398Z,99.90
2018-06-03T07:19:28.639Z,99.90
2018-06-03T07:21:56.938Z,99.90
2018-06-03T07:24:25.219Z,99.90
2018-06-03T07:26:53.544Z,99.90
2018-06-03T07:29:21.971Z,99.90
2018-06-03T07:31:50.531Z,99.90
2018-06-03T07:34:18.780Z,98.10
2018-06-03T07:36:47.107Z,98.30
2018-06-03T07:39:15.336Z,99.80
2018-06-03T07:41:43.608Z,99.90
2018-06-03T07:46:40.803Z,98.20
2018-06-03T07:49:09.042Z,97.40
2018-06-03T07:54:05.148Z,99.00
2018-06-03T07:56:33.185Z,98.50
2018-06-03T07:59:01.316Z,99.00
2018-06-03T08:03:57.472Z,99.90
2018-06-03T08:06:25.688Z,98.80
2018-06-03T08:08:53.965Z,97.90
2018-06-03T08:11:22.223Z,99.30
2018-06-03T08:13:50.798Z,97.20
2018-06-03T08:16:19.221Z,97.50
2018-06-03T08:18:47.494Z,97.70
2018-06-03T08:21:15.605Z,95.50
2018-06-03T08:23:43.969Z,94.20
2018-06-03T08:26:12.213Z,94.40
2018-06-03T08:28:40.463Z,94.30
2018-06-03T08:31:08.717Z,94.30
2018-06-03T08:36:05.387Z,91.40
2018-06-03T08:38:33.545Z,90.90
2018-06-03T08:43:30.077Z,91.40
2018-06-03T08:45:58.374Z,92.50
2018-06-03T08:50:54.888Z,91.30
2018-06-03T08:53:23.231Z,90.60
2018-06-03T08:55:51.413Z,91.00
2018-06-03T08:58:19.533Z,90.50
2018-06-03T09:00:48.556Z,90.00
2018-06-03T09:03:16.949Z,90.50
2018-06-03T09:05:45.332Z,87.30
2018-06-03T09:08:13.511Z,86.70
2018-06-03T09:10:41.781Z,89.70
2018-06-03T09:13:10.422Z,83.80
2018-06-03T09:15:38.606Z,83.70
2018-06-03T09:18:07.968Z,85.60
2018-06-03T09:20:36.089Z,83.50
2018-06-03T09:23:04.248Z,83.40
2018-06-03T09:25:32.437Z,85.50
2018-06-03T09:28:00.680Z,85.50
2018-06-03T09:32:57.557Z,85.80
2018-06-03T09:35:26.041Z,82.90
2018-06-03T09:37:54.452Z,83.60
2018-06-03T09:40:22.953Z,85.00
2018-06-03T09:42:51.137Z,81.70
2018-06-03T09:45:19.272Z,78.90
2018-06-03T09:47:47.695Z,82.10
2018-06-03T09:50:16.069Z,82.60
2018-06-03T09:52:44.202Z,85.50
2018-06-03T09:55:12.306Z,85.10
2018-06-03T09:57:40.928Z,86.40
2018-06-03T10:00:13.781Z,84.90
2018-06-03T10:02:42.256Z,85.60
2018-06-03T10:05:10.648Z,87.80
2018-06-03T10:07:39.318Z,86.50
2018-06-03T10:10:07.644Z,85.70
2018-06-03T10:12:35.694Z,87.20
2018-06-03T10:17:32.144Z,87.60
2018-06-03T10:20:00.571Z,86.70
2018-06-03T10:22:28.798Z,86.50
2018-06-03T10:24:57.226Z,87.80
2018-06-03T10:27:25.812Z,88.40
2018-06-03T10:29:54.173Z,89.40
2018-06-03T10:32:22.344Z,88.90
2018-06-03T10:34:50.390Z,89.40
2018-06-03T10:37:18.711Z,90.10
2018-06-03T10:39:46.973Z,90.30
2018-06-03T10:42:15.357Z,89.40
2018-06-03T10:44:43.748Z,90.10
2018-06-03T10:47:12.068Z,90.50
2018-06-03T10:49:40.300Z,90.30
2018-06-03T10:52:08.750Z,88.80
2018-06-03T10:54:36.946Z,87.80
2018-06-03T10:57:05.014Z,87.70
2018-06-03T10:59:33.349Z,88.80
2018-06-03T11:04:29.593Z,90.60
2018-06-03T11:06:57.937Z,91.30
2018-06-03T11:09:26.384Z,91.70
2018-06-03T11:11:54.455Z,91.00
2018-06-03T11:14:22.729Z,92.00
2018-06-03T11:16:51.683Z,90.90
2018-06-03T11:19:20.131Z,90.00
2018-06-03T11:21:48.319Z,90.50
2018-06-03T11:24:16.463Z,91.10
2018-06-03T11:26:44.685Z,91.10
2018-06-03T11:29:12.813Z,90.60
2018-06-03T11:31:41.334Z,90.10
2018-06-03T11:34:09.814Z,88.80
2018-06-03T11:36:38.917Z,89.10
2018-06-03T11:39:08.103Z,88.40
2018-06-03T11:41:36.253Z,87.30
2018-06-03T11:44:04.533Z,86.10
2018-06-03T11:46:33.453Z,87.10
2018-06-03T11:49:01.617Z,87.30
2018-06-03T11:51:29.856Z,86.70
2018-06-03T11:53:58.108Z,85.90
2018-06-03T11:56:37.360Z,85.60
2018-06-03T11:59:18.685Z,82.90
2018-06-03T12:01:47.217Z,84.50
2018-06-03T12:04:15.495Z,84.20
2018-06-03T12:06:43.599Z,83.10
2018-06-03T12:11:39.669Z,84.30
2018-06-03T12:14:08.268Z,83.80
2018-06-03T12:16:36.365Z,83.80
2018-06-03T12:19:15.215Z,86.00
2018-06-03T12:21:43.422Z,87.50
2018-06-03T12:24:11.766Z,87.40
2018-06-03T12:26:40.235Z,88.20
2018-06-03T12:29:08.785Z,88.30
2018-06-03T12:31:37.381Z,86.50
2018-06-03T12:34:05.609Z,87.50
2018-06-03T12:36:33.942Z,87.50
2018-06-03T12:39:02.748Z,88.20
2018-06-03T12:41:30.976Z,88.80
2018-06-03T12:43:59.276Z,87.60
2018-06-03T12:46:27.630Z,87.00
2018-06-03T12:48:55.930Z,84.30
2018-06-03T12:51:24.298Z,84.70
2018-06-03T12:53:52.524Z,84.30
2018-06-03T12:56:20.836Z,82.90
2018-06-03T12:58:49.422Z,83.20
2018-06-03T13:01:17.817Z,82.70
2018-06-03T13:03:45.993Z,83.90
2018-06-03T13:06:15.083Z,85.80
2018-06-03T13:08:43.732Z,84.80
2018-06-03T13:11:12.165Z,84.00
2018-06-03T13:13:41.021Z,83.40
2018-06-03T13:18:37.815Z,80.70
2018-06-03T13:21:06.528Z,79.40
2018-06-03T13:23:35.009Z,80.80
2018-06-03T13:26:03.261Z,78.70
2018-06-03T13:28:31.494Z,78.20
2018-06-03T13:31:00.382Z,79.40
2018-06-03T13:33:28.863Z,78.10
2018-06-03T13:35:57.157Z,77.20
2018-06-03T13:38:25.567Z,77.30
2018-06-03T13:40:54.831Z,79.60
2018-06-03T13:43:23.172Z,78.60
2018-06-03T13:45:51.522Z,80.10
2018-06-03T13:48:19.968Z,77.20
2018-06-03T13:50:48.404Z,77.20
2018-06-03T13:53:16.626Z,76.90
2018-06-03T13:55:45.171Z,76.90
2018-06-03T13:58:13.584Z,79.20
2018-06-03T14:00:41.819Z,79.70
2018-06-03T14:03:10.244Z,79.90
2018-06-03T14:05:39.007Z,80.70
2018-06-03T14:08:07.112Z,80.20
2018-06-03T14:10:39.201Z,79.20
2018-06-03T14:13:07.525Z,75.50
2018-06-03T14:15:35.744Z,80.70
2018-06-03T14:20:31.952Z,80.90
2018-06-03T14:23:00.345Z,81.20
2018-06-03T14:25:29.496Z,80.50
2018-06-03T14:27:57.818Z,82.00
2018-06-03T14:30:26.210Z,82.10
2018-06-03T14:32:54.552Z,80.10
2018-06-03T14:35:22.939Z,79.90
2018-06-03T14:37:51.486Z,79.10
2018-06-03T14:40:19.787Z,79.50
2018-06-03T14:42:48.610Z,79.40
2018-06-03T14:45:16.862Z,80.10
2018-06-03T14:47:45.022Z,80.30
2018-06-03T14:50:13.522Z,79.70
2018-06-03T14:52:42.018Z,79.10
2018-06-03T14:55:10.576Z,79.00
2018-06-03T14:57:38.970Z,78.80
2018-06-03T15:00:07.900Z,78.90
2018-06-03T15:02:36.505Z,79.40
2018-06-03T15:05:04.872Z,79.50
2018-06-03T15:07:33.540Z,80.10
2018-06-03T15:10:01.877Z,80.40
2018-06-03T15:12:30.377Z,80.60
2018-06-03T15:14:58.778Z,79.80
2018-06-03T15:17:27.206Z,79.90
2018-06-03T15:19:56.079Z,80.70
2018-06-03T15:22:24.227Z,81.10
2018-06-03T15:24:52.650Z,81.20
2018-06-03T15:27:21.921Z,80.90
2018-06-03T15:29:50.260Z,81.30
2018-06-03T15:32:18.879Z,79.60
2018-06-03T15:34:48.145Z,79.60
2018-06-03T15:37:16.896Z,79.30
2018-06-03T15:39:45.114Z,79.00
2018-06-03T15:42:13.817Z,79.00
2018-06-03T15:44:41.901Z,79.50
2018-06-03T15:47:10.735Z,78.80
2018-06-03T15:49:39.119Z,78.90
2018-06-03T15:52:07.554Z,79.60
2018-06-03T15:54:35.810Z,80.90
2018-06-03T15:57:04.629Z,82.60
2018-06-03T15:59:33.065Z,82.30
2018-06-03T16:02:01.364Z,81.60
2018-06-03T16:04:29.611Z,81.20
2018-06-03T16:06:58.147Z,81.50
2018-06-03T16:09:26.352Z,82.50
2018-06-03T16:11:54.885Z,83.30
2018-06-03T16:14:23.572Z,82.30
2018-06-03T16:16:52.241Z,81.70
2018-06-03T16:19:20.851Z,81.20
2018-06-03T16:24:17.564Z,81.30
2018-06-03T16:26:46.136Z,81.90
2018-06-03T16:29:14.458Z,81.60
2018-06-03T16:31:42.927Z,81.60
2018-06-03T16:34:11.547Z,81.70
2018-06-03T16:36:39.842Z,83.10
2018-06-03T16:39:08.431Z,83.50
2018-06-03T16:41:36.621Z,82.60
2018-06-03T16:44:04.759Z,82.90
2018-06-03T16:46:33.212Z,84.00
2018-06-03T16:49:02.261Z,84.10
2018-06-03T16:51:30.741Z,84.30
2018-06-03T16:58:55.065Z,84.70
2018-06-03T17:01:23.425Z,84.80
2018-06-03T17:06:20.059Z,85.40
2018-06-03T17:08:48.165Z,85.60
2018-06-03T17:11:17.221Z,85.50
2018-06-03T17:13:45.434Z,85.70
2018-06-03T17:16:13.820Z,85.90
2018-06-03T17:18:41.931Z,85.40
2018-06-03T17:21:10.494Z,85.60
2018-06-03T17:23:40.017Z,85.60
2018-06-03T17:26:08.428Z,85.80
2018-06-03T17:28:36.579Z,85.40
2018-06-03T17:31:04.914Z,86.10
2018-06-03T17:33:33.169Z,86.30
2018-06-03T17:36:01.499Z,87.00
2018-06-03T17:38:29.808Z,87.50
2018-06-03T17:40:58.478Z,88.50
2018-06-03T17:43:27.064Z,89.00
2018-06-03T17:45:55.956Z,89.40
2018-06-03T17:48:24.266Z,89.50
2018-06-03T17:50:52.513Z,89.70
2018-06-03T17:53:20.899Z,90.10
2018-06-03T17:55:49.976Z,90.30
2018-06-03T18:00:46.329Z,90.70
2018-06-03T18:03:15.800Z,90.50
2018-06-03T18:05:44.976Z,90.80
2018-06-03T18:08:13.363Z,91.00
2018-06-03T18:10:43.740Z,91.10
2018-06-03T18:13:12.694Z,91.30
2018-06-03T18:15:41.570Z,91.20
2018-06-03T18:18:10.096Z,91.50
2018-06-03T18:20:38.543Z,91.70
2018-06-03T18:23:07.100Z,91.40
2018-06-03T18:25:35.346Z,91.80
2018-06-03T18:28:03.839Z,92.00
2018-06-03T18:30:32.688Z,92.00
2018-06-03T18:33:01.045Z,92.00
2018-06-03T18:35:29.530Z,92.10
2018-06-03T18:37:58.621Z,92.20
2018-06-03T18:40:26.852Z,92.40
2018-06-03T18:42:55.174Z,92.60
2018-06-03T18:45:23.586Z,92.80
2018-06-03T18:47:53.261Z,92.90
2018-06-03T18:50:21.559Z,93.20
2018-06-03T18:52:50.296Z,93.30
2018-06-03T18:55:21.051Z,93.40
2018-06-03T18:57:49.581Z,93.70
2018-06-03T19:00:17.974Z,93.80
2018-06-03T19:02:46.377Z,94.10
2018-06-03T19:05:14.839Z,94.40
2018-06-03T19:07:43.289Z,94.60
2018-06-03T19:10:13.061Z,94.80
2018-06-03T19:12:41.850Z,95.00
2018-06-03T19:15:10.645Z,95.10
2018-06-03T19:17:38.949Z,95.40
2018-06-03T19:20:07.378Z,95.60
2018-06-03T19:22:35.909Z,95.90
2018-06-03T19:25:04.634Z,96.20
2018-06-03T19:27:32.886Z,96.50
2018-06-03T19:30:01.170Z,96.80
2018-06-03T19:32:29.737Z,97.00
2018-06-03T19:37:27.307Z,97.20
2018-06-03T19:39:56.052Z,97.40
2018-06-03T19:42:24.785Z,97.60
2018-06-03T19:44:53.011Z,97.60
2018-06-03T19:47:21.334Z,97.90
2018-06-03T19:49:49.735Z,98.10
2018-06-03T19:52:18.128Z,98.40
2018-06-03T19:54:47.932Z,98.50
2018-06-03T19:57:17.096Z,98.60
2018-06-03T19:59:45.541Z,98.70
2018-06-03T20:02:14.063Z,98.90
2018-06-03T20:04:42.450Z,99.00
2018-06-03T20:09:38.882Z,99.40
2018-06-03T20:12:07.875Z,99.60
2018-06-03T20:14:36.240Z,99.60
2018-06-03T20:17:04.487Z,99.80
2018-06-03T20:19:32.755Z,99.90
2018-06-03T20:22:01.573Z,99.90
2018-06-03T20:24:29.925Z,99.90
2018-06-03T20:26:58.203Z,99.90
2018-06-03T20:29:26.749Z,99.90
2018-06-03T20:31:55.277Z,99.90
2018-06-03T20:34:24.505Z,99.90
2018-06-03T20:36:53.044Z,99.90
2018-06-03T20:39:21.546Z,99.90
2018-06-03T20:41:50.006Z,99.90
2018-06-03T20:44:18.937Z,99.90
2018-06-03T20:46:47.301Z,99.90
2018-06-03T20:49:15.817Z,99.90
2018-06-03T20:51:44.138Z,99.90
2018-06-03T20:54:12.322Z,99.90
2018-06-03T20:56:40.348Z,99.90
2018-06-03T20:59:08.681Z,99.90
2018-06-03T21:01:36.967Z,99.90
2018-06-03T21:04:05.292Z,99.90
2018-06-03T21:06:33.961Z,99.90
2018-06-03T21:09:02.461Z,99.90
2018-06-03T21:11:30.995Z,99.90
2018-06-03T21:13:59.578Z,99.90
2018-06-03T21:16:28.109Z,99.90
2018-06-03T21:18:56.422Z,99.90
2018-06-03T21:21:24.765Z,99.90
2018-06-03T21:23:53.025Z,99.90
2018-06-03T21:26:21.591Z,99.90
2018-06-03T21:28:49.983Z,99.90
2018-06-03T21:31:18.273Z,99.90
2018-06-03T21:33:46.802Z,99.90
2018-06-03T21:36:15.205Z,99.90
2018-06-03T21:38:43.388Z,99.90
2018-06-03T21:41:12.977Z,99.90
2018-06-03T21:43:41.855Z,99.90
2018-06-03T21:46:10.164Z,99.90
2018-06-03T21:48:38.716Z,99.90
2018-06-03T21:51:07.130Z,99.90
2018-06-03T21:53:35.576Z,99.90
2018-06-03T21:56:03.841Z,99.90
2018-06-03T21:58:32.132Z,99.90
2018-06-03T22:01:00.469Z,99.90
2018-06-03T22:03:28.927Z,99.90
2018-06-03T22:05:57.109Z,99.90
2018-06-03T22:08:25.315Z,99.90
2018-06-03T22:10:53.697Z,99.90
2018-06-03T22:13:22.037Z,99.90
2018-06-03T22:15:51.028Z,99.90
2018-06-03T22:18:19.266Z,99.90
2018-06-03T22:20:47.709Z,99.90
2018-06-03T22:23:16.011Z,99.90
2018-06-03T22:25:44.137Z,99.90
2018-06-03T22:28:12.887Z,99.90
2018-06-03T22:30:40.990Z,99.90
2018-06-03T22:33:09.347Z,99.90
2018-06-03T22:35:37.703Z,99.90
2018-06-03T22:40:34.128Z,99.90
2018-06-03T22:43:02.470Z,99.90
2018-06-03T22:45:31.563Z,99.90
2018-06-03T22:47:59.756Z,99.90
2018-06-03T22:50:28.354Z,99.90
2018-06-03T22:52:56.653Z,99.90
2018-06-03T22:57:54.657Z,99.90
2018-06-03T23:00:25.857Z,99.90
2018-06-03T23:02:59.532Z,99.90
2018-06-03T23:05:27.913Z,99.90
2018-06-03T23:07:56.284Z,99.90
2018-06-03T23:10:24.619Z,99.90
2018-06-03T23:12:52.896Z,99.90
2018-06-03T23:15:21.332Z,99.90
2018-06-03T23:17:49.741Z,99.90
2018-06-03T23:20:18.106Z,99.90
2018-06-03T23:22:47.004Z,99.90
2018-06-03T23:25:15.264Z,99.90
2018-06-03T23:27:43.421Z,99.90
2018-06-03T23:30:11.793Z,99.90
2018-06-03T23:32:40.172Z,99.90
2018-06-03T23:35:08.442Z,99.90
2018-06-03T23:37:36.635Z,99.90
2018-06-03T23:40:05.306Z,99.90
2018-06-03T23:42:33.959Z,99.90
2018-06-03T23:45:02.264Z,99.90
2018-06-03T23:47:31.154Z,99.90
2018-06-03T23:49:59.780Z,99.90
2018-06-03T23:52:28.241Z,99.90
2018-06-03T23:54:56.898Z,99.90
2018-06-03T23:57:25.081Z,99.90
2018-06-03T23:59:53.484Z,99.90
